createdAt,value
2018-06-09T00:01:10.187Z,95.96
2018-06-09T00:03:39.278Z,96.11
2018-06-09T00:06:07.990Z,96.91
2018-06-09T00:08:37.870Z,96.81
2018-06-09T00:11:06.841Z,96.73
2018-06-09T00:13:35.858Z,97.06
2018-06-09T00:16:04.712Z,97.17
2018-06-09T00:18:33.872Z,97.05
2018-06-09T00:21:02.608Z,97.19
2018-06-09T00:23:31.832Z,97.62
2018-06-09T00:26:00.757Z,97.63
2018-06-09T00:28:29.497Z,97.62
2018-06-09T00:30:58.265Z,97.59
2018-06-09T00:33:26.960Z,97.53
2018-06-09T00:35:55.643Z,97.15
2018-06-09T00:38:25.067Z,97.62
2018-06-09T00:40:53.755Z,98.08
2018-06-09T00:43:22.502Z,97.70
2018-06-09T00:45:51.397Z,97.90
2018-06-09T00:48:20.517Z,97.68
2018-06-09T00:50:50.192Z,98.13
2018-06-09T00:53:18.870Z,98.16
2018-06-09T00:55:47.802Z,97.94
2018-06-09T00:58:16.605Z,97.81
2018-06-09T01:00:45.390Z,98.05
2018-06-09T01:03:14.076Z,98.00
2018-06-09T01:05:42.886Z,98.38
2018-06-09T01:08:12.120Z,98.17
2018-06-09T01:10:41.416Z,98.45
2018-06-09T01:13:10.136Z,98.17
2018-06-09T01:15:38.998Z,98.50
2018-06-09T01:18:07.647Z,98.55
2018-06-09T01:20:36.762Z,98.90
2018-06-09T01:23:05.505Z,98.78
2018-06-09T01:25:34.311Z,98.82
2018-06-09T01:28:03.196Z,98.60
2018-06-09T01:30:32.165Z,98.58
2018-06-09T01:33:01.311Z,98.31
2018-06-09T01:35:30.261Z,98.45
2018-06-09T01:37:59.557Z,98.43
2018-06-09T01:40:29.334Z,98.26
2018-06-09T01:42:58.224Z,98.14
2018-06-09T01:45:27.371Z,98.24
2018-06-09T01:47:56.302Z,98.21
2018-06-09T01:50:25.128Z,98.95
2018-06-09T01:52:53.944Z,98.99
2018-06-09T01:55:23.645Z,98.95
2018-06-09T01:57:52.656Z,98.87
2018-06-09T02:00:21.868Z,98.86
2018-06-09T02:02:51.144Z,98.82
2018-06-09T02:05:20.103Z,99.16
2018-06-09T02:07:49.547Z,98.90
2018-06-09T02:10:18.363Z,98.94
2018-06-09T02:12:47.181Z,99.02
2018-06-09T02:15:16.064Z,99.04
2018-06-09T02:17:44.944Z,98.62
2018-06-09T02:20:13.739Z,98.28
2018-06-09T02:22:43.424Z,98.82
2018-06-09T02:25:12.115Z,98.72
2018-06-09T02:27:41.270Z,98.77
2018-06-09T02:30:10.560Z,98.57
2018-06-09T02:32:39.710Z,98.38
2018-06-09T02:35:09.220Z,98.53
2018-06-09T02:37:37.875Z,98.55
2018-06-09T02:40:07.416Z,98.46
2018-06-09T02:42:36.811Z,97.98
2018-06-09T02:45:05.575Z,98.34
2018-06-09T02:47:34.316Z,98.73
2018-06-09T02:50:03.061Z,98.60
2018-06-09T02:52:31.756Z,98.56
2018-06-09T02:55:00.400Z,98.50
2018-06-09T02:57:29.139Z,98.68
2018-06-09T02:59:58.056Z,98.77
2018-06-09T03:02:26.732Z,98.73
2018-06-09T03:04:55.736Z,98.82
2018-06-09T03:07:24.694Z,98.28
2018-06-09T03:09:53.382Z,98.66
2018-06-09T03:12:22.106Z,98.34
2018-06-09T03:14:50.916Z,98.61
2018-06-09T03:17:19.942Z,98.35
2018-06-09T03:19:48.757Z,97.91
2018-06-09T03:22:17.540Z,98.20
2018-06-09T03:24:46.425Z,98.46
2018-06-09T03:27:14.976Z,98.46
2018-06-09T03:29:43.726Z,98.95
2018-06-09T03:32:12.377Z,98.75
2018-06-09T03:34:41.607Z,98.83
2018-06-09T03:37:10.575Z,98.95
2018-06-09T03:39:39.153Z,98.95
2018-06-09T03:42:08.249Z,99.04
2018-06-09T03:51:13.418Z,99.16
2018-06-09T03:53:42.274Z,98.13
2018-06-09T03:56:10.945Z,97.43
2018-06-09T03:58:39.525Z,96.84
2018-06-09T04:01:08.335Z,96.08
2018-06-09T04:03:37.203Z,96.28
2018-06-09T04:06:06.508Z,97.18
2018-06-09T04:08:35.913Z,96.61
2018-06-09T04:11:04.510Z,96.92
2018-06-09T04:13:33.167Z,97.82
2018-06-09T04:16:02.655Z,97.28
2018-06-09T04:18:32.810Z,97.33
2018-06-09T04:21:01.418Z,97.40
2018-06-09T04:23:30.335Z,97.10
2018-06-09T04:26:00.023Z,96.70
2018-06-09T04:28:28.796Z,96.16
2018-06-09T04:30:57.471Z,95.91
2018-06-09T04:33:26.222Z,95.33
2018-06-09T04:35:55.342Z,95.01
2018-06-09T04:38:23.972Z,95.06
2018-06-09T04:40:52.945Z,95.37
2018-06-09T04:43:22.351Z,94.62
2018-06-09T04:45:51.326Z,94.17
2018-06-09T04:48:20.016Z,94.08
2018-06-09T04:50:48.852Z,93.97
2018-06-09T04:53:18.371Z,94.07
2018-06-09T04:55:48.261Z,92.88
2018-06-09T04:58:17.167Z,91.98
2018-06-09T05:00:45.831Z,91.30
2018-06-09T05:03:14.404Z,89.87
2018-06-09T05:05:43.198Z,89.60
2018-06-09T05:08:12.509Z,88.24
2018-06-09T05:10:41.346Z,87.86
2018-06-09T05:13:10.221Z,87.69
2018-06-09T05:15:39.134Z,87.03
2018-06-09T05:18:07.771Z,87.07
2018-06-09T05:20:36.572Z,86.82
2018-06-09T05:23:05.534Z,87.43
2018-06-09T05:25:34.164Z,85.27
2018-06-09T05:28:03.425Z,84.81
2018-06-09T05:30:32.694Z,85.05
2018-06-09T05:33:01.748Z,85.26
2018-06-09T05:35:30.583Z,84.19
2018-06-09T05:37:59.109Z,83.29
2018-06-09T05:40:28.023Z,81.17
2018-06-09T05:42:56.628Z,79.76
2018-06-09T05:45:25.338Z,80.14
2018-06-09T05:47:54.291Z,79.37
2018-06-09T05:50:23.477Z,80.99
2018-06-09T05:52:52.791Z,80.84
2018-06-09T05:55:21.547Z,81.99
2018-06-09T05:57:50.176Z,80.69
2018-06-09T06:00:19.073Z,77.13
2018-06-09T06:02:48.605Z,74.64
2018-06-09T06:05:17.319Z,72.33
2018-06-09T06:07:45.948Z,72.20
2018-06-09T06:10:14.887Z,74.14
2018-06-09T06:12:43.585Z,75.08
2018-06-09T06:15:12.691Z,76.98
2018-06-09T06:17:41.793Z,75.62
2018-06-09T06:20:10.757Z,76.18
2018-06-09T06:22:39.928Z,75.24
2018-06-09T06:25:08.598Z,74.80
2018-06-09T06:27:37.828Z,75.02
2018-06-09T06:30:06.731Z,74.75
2018-06-09T06:32:35.472Z,71.26
2018-06-09T06:35:04.427Z,67.61
2018-06-09T06:37:33.142Z,62.98
2018-06-09T06:40:01.948Z,62.26
2018-06-09T06:42:30.727Z,62.04
2018-06-09T06:44:59.630Z,64.85
2018-06-09T06:47:28.887Z,65.65
2018-06-09T06:49:57.953Z,68.18
2018-06-09T06:52:26.671Z,68.52
2018-06-09T06:54:55.344Z,66.29
2018-06-09T06:57:24.158Z,63.51
2018-06-09T06:59:52.752Z,62.53
2018-06-09T07:02:22.092Z,58.75
2018-06-09T07:04:50.862Z,56.84
2018-06-09T07:07:19.586Z,52.27
2018-06-09T07:09:48.233Z,50.80
2018-06-09T07:12:17.004Z,50.85
2018-06-09T07:14:46.149Z,51.87
2018-06-09T07:17:15.333Z,54.30
2018-06-09T07:19:44.239Z,56.16
2018-06-09T07:22:13.005Z,57.73
2018-06-09T07:24:41.722Z,60.22
2018-06-09T07:27:11.049Z,61.13
2018-06-09T07:29:39.848Z,60.99
2018-06-09T07:32:08.788Z,62.52
2018-06-09T07:34:37.725Z,63.19
2018-06-09T07:37:06.469Z,62.55
2018-06-09T07:39:35.529Z,60.50
2018-06-09T07:42:04.316Z,59.93
2018-06-09T07:44:33.084Z,56.94
2018-06-09T07:47:02.284Z,51.92
2018-06-09T07:49:31.014Z,51.18
2018-06-09T07:51:59.819Z,52.07
2018-06-09T07:54:29.029Z,56.87
2018-06-09T07:56:57.728Z,58.06
2018-06-09T07:59:26.578Z,59.87
2018-06-09T08:01:55.593Z,58.75
2018-06-09T08:04:24.419Z,61.38
2018-06-09T08:06:53.682Z,61.85
2018-06-09T08:09:22.668Z,60.84
2018-06-09T08:11:51.394Z,61.60
2018-06-09T08:14:20.682Z,60.76
2018-06-09T08:16:49.490Z,54.80
2018-06-09T08:19:18.187Z,48.81
2018-06-09T08:21:47.017Z,43.49
2018-06-09T08:24:15.961Z,40.00
2018-06-09T08:26:44.628Z,41.72
2018-06-09T08:29:13.288Z,46.34
2018-06-09T08:31:41.974Z,51.71
2018-06-09T08:34:10.649Z,50.67
2018-06-09T08:36:39.739Z,48.51
2018-06-09T08:39:08.819Z,43.34
2018-06-09T08:41:37.750Z,39.49
2018-06-09T08:44:06.474Z,36.56
2018-06-09T08:46:35.628Z,32.70
2018-06-09T08:49:05.099Z,33.28
2018-06-09T08:51:33.880Z,35.89
2018-06-09T08:54:02.660Z,35.14
2018-06-09T08:56:31.392Z,35.55
2018-06-09T08:59:00.213Z,35.81
2018-06-09T09:01:29.075Z,31.32
2018-06-09T09:03:58.185Z,30.83
2018-06-09T09:06:27.009Z,31.19
2018-06-09T09:08:55.863Z,34.37
2018-06-09T09:11:24.615Z,35.86
2018-06-09T09:13:53.498Z,35.46
2018-06-09T09:16:22.462Z,36.60
2018-06-09T09:18:51.777Z,38.50
2018-06-09T09:21:20.495Z,38.75
2018-06-09T09:23:49.419Z,36.13
2018-06-09T09:26:18.474Z,35.73
2018-06-09T09:28:47.729Z,36.15
2018-06-09T09:31:16.650Z,36.95
2018-06-09T09:33:45.282Z,39.79
2018-06-09T09:36:14.044Z,36.64
2018-06-09T09:38:42.860Z,32.20
2018-06-09T09:41:11.760Z,30.06
2018-06-09T09:43:41.023Z,28.54
2018-06-09T09:46:10.374Z,26.91
2018-06-09T09:48:39.523Z,25.05
2018-06-09T09:51:08.254Z,24.33
2018-06-09T09:53:37.650Z,25.34
2018-06-09T09:56:07.180Z,26.07
2018-06-09T09:58:35.793Z,26.01
2018-06-09T10:01:04.697Z,25.37
2018-06-09T10:03:33.491Z,24.92
2018-06-09T10:06:02.256Z,24.87
2018-06-09T10:08:30.874Z,27.07
2018-06-09T10:10:59.433Z,29.34
2018-06-09T10:13:28.223Z,34.29
2018-06-09T10:15:56.900Z,36.09
2018-06-09T10:18:26.405Z,34.44
2018-06-09T10:20:55.246Z,33.67
2018-06-09T10:23:24.706Z,35.99
2018-06-09T10:25:53.826Z,40.15
2018-06-09T10:28:22.931Z,42.53
2018-06-09T10:30:51.960Z,39.83
2018-06-09T10:33:21.606Z,35.40
2018-06-09T10:35:50.479Z,29.85
2018-06-09T10:38:19.313Z,28.85
2018-06-09T10:40:48.105Z,28.75
2018-06-09T10:43:17.064Z,27.48
2018-06-09T10:45:46.549Z,27.73
2018-06-09T10:48:15.954Z,27.63
2018-06-09T10:50:44.753Z,27.39
2018-06-09T10:53:13.740Z,27.58
2018-06-09T10:55:42.648Z,29.76
2018-06-09T10:58:11.499Z,31.40
2018-06-09T11:00:40.180Z,32.31
2018-06-09T11:03:08.994Z,34.16
2018-06-09T11:05:37.586Z,34.73
2018-06-09T11:08:06.399Z,34.80
2018-06-09T11:10:35.179Z,36.15
2018-06-09T11:13:04.113Z,37.62
2018-06-09T11:15:33.619Z,39.68
2018-06-09T11:18:02.280Z,39.69
2018-06-09T11:20:31.068Z,38.60
2018-06-09T11:23:00.100Z,40.65
2018-06-09T11:25:28.736Z,39.25
2018-06-09T11:27:57.546Z,40.71
2018-06-09T11:30:26.568Z,39.26
2018-06-09T11:32:55.337Z,40.70
2018-06-09T11:35:24.260Z,40.21
2018-06-09T11:37:53.815Z,41.48
2018-06-09T11:40:22.624Z,40.96
2018-06-09T11:42:51.975Z,41.33
2018-06-09T11:45:20.991Z,40.91
2018-06-09T11:47:49.774Z,41.11
2018-06-09T11:50:18.632Z,41.68
2018-06-09T11:52:47.466Z,41.02
2018-06-09T11:55:16.341Z,39.98
2018-06-09T11:57:45.479Z,39.85
2018-06-09T12:00:15.020Z,40.21
2018-06-09T12:02:43.710Z,41.12
2018-06-09T12:05:13.004Z,39.85
2018-06-09T12:07:42.019Z,40.43
2018-06-09T12:10:11.580Z,42.07
2018-06-09T12:12:40.396Z,45.19
2018-06-09T12:15:09.274Z,44.89
2018-06-09T12:17:38.230Z,44.63
2018-06-09T12:20:08.249Z,44.78
2018-06-09T12:22:37.281Z,47.38
2018-06-09T12:25:06.837Z,48.74
2018-06-09T12:27:35.770Z,51.32
2018-06-09T12:30:04.879Z,52.02
2018-06-09T12:32:33.620Z,52.44
2018-06-09T12:35:02.625Z,53.56
2018-06-09T12:37:32.190Z,51.71
2018-06-09T12:40:01.130Z,52.96
2018-06-09T12:42:29.881Z,53.11
2018-06-09T12:44:58.641Z,52.04
2018-06-09T12:47:27.384Z,52.98
2018-06-09T12:49:55.956Z,53.29
2018-06-09T12:52:24.615Z,52.78
2018-06-09T12:54:53.590Z,54.10
2018-06-09T12:57:22.457Z,55.32
2018-06-09T12:59:51.896Z,55.21
2018-06-09T13:02:21.329Z,55.21
2018-06-09T13:04:50.706Z,55.89
2018-06-09T13:07:19.832Z,55.57
2018-06-09T13:09:48.946Z,56.66
2018-06-09T13:12:17.916Z,57.27
2018-06-09T13:14:47.406Z,57.38
2018-06-09T13:17:16.154Z,57.89
2018-06-09T13:19:44.750Z,56.03
2018-06-09T13:22:13.916Z,56.78
2018-06-09T13:24:42.594Z,55.51
2018-06-09T13:27:11.300Z,55.38
2018-06-09T13:29:40.066Z,53.15
2018-06-09T13:32:08.970Z,52.56
2018-06-09T13:34:38.060Z,53.63
2018-06-09T13:37:07.417Z,52.47
2018-06-09T13:39:36.715Z,53.63
2018-06-09T13:42:05.601Z,54.76
2018-06-09T13:44:35.075Z,53.45
2018-06-09T13:47:04.176Z,54.31
2018-06-09T13:49:33.478Z,55.60
2018-06-09T13:52:02.346Z,55.01
2018-06-09T13:54:31.080Z,55.93
2018-06-09T13:57:00.052Z,56.15
2018-06-09T13:59:28.741Z,57.26
2018-06-09T14:01:57.864Z,57.53
2018-06-09T14:04:26.820Z,57.03
2018-06-09T14:06:56.095Z,57.46
2018-06-09T14:09:24.999Z,56.62
2018-06-09T14:11:53.687Z,57.01
2018-06-09T14:14:23.291Z,56.39
2018-06-09T14:16:52.791Z,56.79
2018-06-09T14:19:22.138Z,59.45
2018-06-09T14:21:52.302Z,59.98
2018-06-09T14:24:21.732Z,60.83
2018-06-09T14:26:50.812Z,58.90
2018-06-09T14:29:19.935Z,58.96
2018-06-09T14:31:49.141Z,60.09
2018-06-09T14:34:18.091Z,60.62
2018-06-09T14:36:46.975Z,61.73
2018-06-09T14:39:15.867Z,60.84
2018-06-09T14:41:45.413Z,61.09
2018-06-09T14:44:14.980Z,61.81
2018-06-09T14:46:44.562Z,61.70
2018-06-09T14:49:13.510Z,60.69
2018-06-09T14:51:42.458Z,60.95
2018-06-09T14:54:11.276Z,63.33
2018-06-09T14:56:40.747Z,60.47
2018-06-09T14:59:10.255Z,59.83
2018-06-09T15:01:39.560Z,59.24
2018-06-09T15:04:08.262Z,57.97
2018-06-09T15:06:37.394Z,58.30
2018-06-09T15:09:08.826Z,57.96
2018-06-09T15:11:37.691Z,58.42
2018-06-09T15:14:07.245Z,59.95
2018-06-09T15:16:36.086Z,58.43
2018-06-09T15:19:05.458Z,59.23
2018-06-09T15:21:34.353Z,60.84
2018-06-09T15:24:03.011Z,60.81
2018-06-09T15:26:31.782Z,58.92
2018-06-09T15:29:01.808Z,60.70
2018-06-09T15:31:30.730Z,62.63
2018-06-09T15:33:59.663Z,63.17
2018-06-09T15:36:28.887Z,62.57
2018-06-09T15:38:57.797Z,63.25
2018-06-09T15:41:26.656Z,64.47
2018-06-09T15:43:55.761Z,64.87
2018-06-09T15:46:24.917Z,63.99
2018-06-09T15:48:54.057Z,63.48
2018-06-09T15:51:22.995Z,63.45
2018-06-09T15:53:51.837Z,64.49
2018-06-09T15:56:21.745Z,64.65
2018-06-09T15:58:50.995Z,63.81
2018-06-09T16:01:19.747Z,64.08
2018-06-09T16:03:48.453Z,63.98
2018-06-09T16:06:17.705Z,64.35
2018-06-09T16:08:46.883Z,65.33
2018-06-09T16:11:15.861Z,66.55
2018-06-09T16:13:44.571Z,67.08
2018-06-09T16:16:13.613Z,67.42
2018-06-09T16:18:42.349Z,68.18
2018-06-09T16:21:11.149Z,67.31
2018-06-09T16:23:40.196Z,67.62
2018-06-09T16:26:09.083Z,69.72
2018-06-09T16:28:37.758Z,71.09
2018-06-09T16:31:06.956Z,70.02
2018-06-09T16:33:35.620Z,70.71
2018-06-09T16:36:04.380Z,70.64
2018-06-09T16:38:33.422Z,71.30
2018-06-09T16:41:02.243Z,70.92
2018-06-09T16:43:31.205Z,70.83
2018-06-09T16:46:00.511Z,72.10
2018-06-09T16:48:29.562Z,71.96
2018-06-09T16:50:58.848Z,72.30
2018-06-09T16:53:28.058Z,71.43
2018-06-09T16:55:57.047Z,71.95
2018-06-09T16:58:26.744Z,71.84
2018-06-09T17:05:57.522Z,72.61
2018-06-09T17:08:26.305Z,72.72
2018-06-09T17:10:55.142Z,73.17
2018-06-09T17:13:24.695Z,73.06
2018-06-09T17:15:53.977Z,72.70
2018-06-09T17:18:22.732Z,73.09
2018-06-09T17:20:51.507Z,74.22
2018-06-09T17:23:20.512Z,72.29
2018-06-09T17:25:49.477Z,71.25
2018-06-09T17:28:19.172Z,71.51
2018-06-09T17:30:48.426Z,72.18
2018-06-09T17:33:16.932Z,75.24
2018-06-09T17:35:45.958Z,75.83
2018-06-09T17:38:14.900Z,74.86
2018-06-09T17:40:43.612Z,74.68
2018-06-09T17:43:12.476Z,74.04
2018-06-09T17:45:41.755Z,73.76
2018-06-09T17:48:11.007Z,74.42
2018-06-09T17:50:39.808Z,75.93
2018-06-09T17:53:08.609Z,75.75
2018-06-09T17:55:37.620Z,74.93
2018-06-09T17:58:06.542Z,75.34
2018-06-09T18:00:36.162Z,75.91
2018-06-09T18:03:04.925Z,75.92
2018-06-09T18:05:34.508Z,78.39
2018-06-09T18:08:03.366Z,75.83
2018-06-09T18:10:32.349Z,74.38
2018-06-09T18:13:01.223Z,74.24
2018-06-09T18:15:31.011Z,74.05
2018-06-09T18:17:59.820Z,78.52
2018-06-09T18:20:28.799Z,79.70
2018-06-09T18:22:58.154Z,80.83
2018-06-09T18:25:26.901Z,78.64
2018-06-09T18:27:55.628Z,78.49
2018-06-09T18:30:24.405Z,79.00
2018-06-09T18:32:53.275Z,78.18
2018-06-09T18:35:22.202Z,77.99
2018-06-09T18:37:51.098Z,79.41
2018-06-09T18:40:20.643Z,82.05
2018-06-09T18:42:50.133Z,82.95
2018-06-09T18:45:19.228Z,82.79
2018-06-09T18:47:47.962Z,82.43
2018-06-09T18:50:16.613Z,82.38
2018-06-09T18:52:45.492Z,83.09
2018-06-09T18:55:14.377Z,83.55
2018-06-09T18:57:43.155Z,83.01
2018-06-09T19:00:12.586Z,83.27
2018-06-09T19:02:41.596Z,84.32
2018-06-09T19:05:10.338Z,84.14
2018-06-09T19:07:39.468Z,84.54
2018-06-09T19:10:08.439Z,84.54
2018-06-09T19:12:37.323Z,85.51
2018-06-09T19:15:06.172Z,85.95
2018-06-09T19:17:34.973Z,85.92
2018-06-09T19:20:04.489Z,85.55
2018-06-09T19:22:33.667Z,86.05
2018-06-09T19:25:02.452Z,86.12
2018-06-09T19:27:31.414Z,86.38
2018-06-09T19:30:00.263Z,87.17
2018-06-09T19:32:29.118Z,87.81
2018-06-09T19:34:58.044Z,87.64
2018-06-09T19:37:27.041Z,87.89
2018-06-09T19:39:55.787Z,88.67
2018-06-09T19:42:25.423Z,88.89
2018-06-09T19:44:54.543Z,89.17
2018-06-09T19:47:24.114Z,89.82
2018-06-09T19:49:52.954Z,90.13
2018-06-09T19:52:22.376Z,90.32
2018-06-09T19:54:51.313Z,91.42
2018-06-09T19:57:20.319Z,91.42
2018-06-09T19:59:49.107Z,90.54
2018-06-09T20:02:18.117Z,90.47
2018-06-09T20:04:46.806Z,90.40
2018-06-09T20:07:15.564Z,90.00
2018-06-09T20:09:44.413Z,89.93
2018-06-09T20:12:13.398Z,89.95
2018-06-09T20:14:42.230Z,89.41
2018-06-09T20:17:11.524Z,88.73
2018-06-09T20:19:40.328Z,89.50
2018-06-09T20:22:09.150Z,89.68
2018-06-09T20:24:38.123Z,89.78
2018-06-09T20:27:06.856Z,89.23
2018-06-09T20:29:35.807Z,89.11
2018-06-09T20:32:05.181Z,89.87
2018-06-09T20:34:34.119Z,89.12
2018-06-09T20:37:03.269Z,89.41
2018-06-09T20:39:32.217Z,89.65
2018-06-09T20:42:01.081Z,89.54
2018-06-09T20:44:30.109Z,90.03
2018-06-09T20:46:59.143Z,89.32
2018-06-09T20:49:27.914Z,89.47
2018-06-09T20:51:56.627Z,88.70
2018-06-09T20:54:25.904Z,88.38
2018-06-09T20:56:55.124Z,87.68
2018-06-09T20:59:23.939Z,89.02
2018-06-09T21:01:52.801Z,89.70
2018-06-09T21:04:21.509Z,88.73
2018-06-09T21:06:52.131Z,88.76
2018-06-09T21:09:20.870Z,88.97
2018-06-09T21:11:49.774Z,89.00
2018-06-09T21:14:18.738Z,89.77
2018-06-09T21:16:47.904Z,90.25
2018-06-09T21:19:17.519Z,90.34
2018-06-09T21:21:46.370Z,90.46
2018-06-09T21:24:15.465Z,91.31
2018-06-09T21:26:50.607Z,90.60
2018-06-09T21:29:24.442Z,90.70
2018-06-09T21:31:53.967Z,91.04
2018-06-09T21:34:36.129Z,91.56
2018-06-09T21:37:11.449Z,91.03
2018-06-09T21:39:45.283Z,90.76
2018-06-09T21:42:19.264Z,91.10
2018-06-09T21:44:48.459Z,91.22
2018-06-09T21:47:17.262Z,90.79
2018-06-09T21:49:46.000Z,91.88
2018-06-09T21:52:14.997Z,91.95
2018-06-09T21:54:43.644Z,92.15
2018-06-09T21:57:12.355Z,92.11
2018-06-09T21:59:42.254Z,91.88
2018-06-09T22:02:11.036Z,92.18
2018-06-09T22:04:40.148Z,92.73
2018-06-09T22:07:09.367Z,92.56
2018-06-09T22:09:38.340Z,93.12
2018-06-09T22:12:07.953Z,93.22
2018-06-09T22:14:36.758Z,93.18
2018-06-09T22:17:05.726Z,93.75
2018-06-09T22:19:34.689Z,93.52
2018-06-09T22:22:03.476Z,93.73
2018-06-09T22:24:32.303Z,93.58
2018-06-09T22:27:01.398Z,94.01
2018-06-09T22:29:30.330Z,93.91
2018-06-09T22:31:59.709Z,94.23
2018-06-09T22:34:28.529Z,94.19
2018-06-09T22:36:57.154Z,94.21
2018-06-09T22:39:25.908Z,94.28
2018-06-09T22:41:54.679Z,95.00
2018-06-09T22:44:23.728Z,95.16
2018-06-09T22:46:52.527Z,94.84
2018-06-09T22:49:21.317Z,95.14
2018-06-09T22:51:50.144Z,95.29
2018-06-09T22:54:19.751Z,95.25
2018-06-09T22:56:48.782Z,95.70
2018-06-09T22:59:17.585Z,96.41
2018-06-09T23:01:46.437Z,96.38
2018-06-09T23:04:15.473Z,96.01
2018-06-09T23:06:44.314Z,96.03
2018-06-09T23:09:13.066Z,96.28
2018-06-09T23:11:41.879Z,96.23
2018-06-09T23:14:10.696Z,96.35
2018-06-09T23:16:39.725Z,96.04
2018-06-09T23:19:08.728Z,96.82
2018-06-09T23:21:37.438Z,97.05
2018-06-09T23:24:06.667Z,96.70
2018-06-09T23:26:35.643Z,96.98
2018-06-09T23:29:04.572Z,96.91
2018-06-09T23:31:33.325Z,96.81
2018-06-09T23:34:02.513Z,96.78
2018-06-09T23:36:31.626Z,97.20
2018-06-09T23:39:00.514Z,96.94
2018-06-09T23:41:29.408Z,97.22
2018-06-09T23:43:58.474Z,97.48
2018-06-09T23:46:27.229Z,97.87
2018-06-09T23:48:55.922Z,97.77
2018-06-09T23:51:24.882Z,97.89
2018-06-09T23:53:53.822Z,97.80
2018-06-09T23:56:22.565Z,97.42
2018-06-09T23:58:51.668Z,97.79
